TimePST,TemperatureF,Dew PointF,Humidity,Sea Level PressureIn,VisibilityMPH,Wind Direction,Wind SpeedMPH,Gust SpeedMPH,PrecipitationIn,Events,Conditions,WindDirDegrees,DateUTC
12:15 AM,44.6,42.8,93,30.47,1.5,Calm,Calm,-,N/A,,Overcast,0,2013-12-16 08:15:00
12:35 AM,44.6,42.8,93,30.47,2.5,Calm,Calm,-,N/A,,Overcast,0,2013-12-16 08:35:00
12:55 AM,44.6,42.8,93,30.47,5.0,Calm,Calm,-,N/A,,Overcast,0,2013-12-16 08:55:00
1:15 AM,44.6,42.8,93,30.47,4.0,Calm,Calm,-,N/A,,Overcast,0,2013-12-16 09:15:00
1:35 AM,44.6,42.8,93,30.48,2.0,Calm,Calm,-,N/A,,Overcast,0,2013-12-16 09:35:00
1:55 AM,44.6,41.0,87,30.48,1.8,Calm,Calm,-,N/A,,Overcast,0,2013-12-16 09:55:00
2:15 AM,44.6,42.8,93,30.48,2.0,Calm,Calm,-,N/A,,Overcast,0,2013-12-16 10:15:00
2:35 AM,44.6,41.0,87,30.49,4.0,SE,4.6,-,N/A,,Overcast,130,2013-12-16 10:35:00
2:55 AM,44.6,41.0,87,30.49,2.0,Calm,Calm,-,N/A,,Overcast,0,2013-12-16 10:55:00
3:15 AM,44.6,41.0,87,30.49,0.8,Calm,Calm,-,N/A,,Overcast,0,2013-12-16 11:15:00
3:35 AM,44.6,41.0,87,30.50,1.2,Calm,Calm,-,N/A,,Overcast,0,2013-12-16 11:35:00
3:55 AM,44.6,41.0,87,30.50,1.5,Calm,Calm,-,N/A,,Overcast,0,2013-12-16 11:55:00
4:15 AM,44.6,39.2,81,30.49,2.5,Calm,Calm,-,N/A,,Overcast,0,2013-12-16 12:15:00
4:35 AM,41.0,37.4,87,30.49,1.0,Calm,Calm,-,N/A,,Overcast,0,2013-12-16 12:35:00
4:55 AM,42.8,39.2,87,30.48,0.2,Calm,Calm,-,N/A,,Overcast,0,2013-12-16 12:55:00
5:15 AM,41.0,39.2,93,30.49,0.2,Calm,Calm,-,N/A,,Overcast,0,2013-12-16 13:15:00
5:35 AM,39.2,37.4,93,30.48,0.2,Calm,Calm,-,N/A,,Overcast,0,2013-12-16 13:35:00
5:55 AM,41.0,37.4,87,30.49,0.2,Calm,Calm,-,N/A,,Overcast,0,2013-12-16 13:55:00
6:15 AM,39.2,37.4,93,30.49,0.2,Calm,Calm,-,N/A,,Overcast,0,2013-12-16 14:15:00
6:35 AM,41.0,37.4,87,30.48,0.8,Calm,Calm,-,N/A,,Overcast,0,2013-12-16 14:35:00
6:55 AM,41.0,37.4,87,30.49,1.0,Calm,Calm,-,N/A,,Overcast,0,2013-12-16 14:55:00
7:15 AM,41.0,39.2,93,30.49,0.5,Calm,Calm,-,N/A,,Overcast,0,2013-12-16 15:15:00
7:35 AM,42.8,39.2,87,30.49,1.2,Calm,Calm,-,N/A,,Overcast,0,2013-12-16 15:35:00
7:55 AM,41.0,39.2,93,30.50,1.2,Calm,Calm,-,N/A,,Overcast,0,2013-12-16 15:55:00
8:15 AM,42.8,39.2,87,30.52,0.5,Calm,Calm,-,N/A,,Overcast,0,2013-12-16 16:15:00
8:35 AM,42.8,39.2,87,30.51,0.8,Calm,Calm,-,N/A,,Overcast,0,2013-12-16 16:35:00
8:55 AM,42.8,39.2,87,30.51,0.2,Calm,Calm,-,N/A,,Overcast,0,2013-12-16 16:55:00
9:15 AM,44.6,41.0,87,30.51,0.2,Calm,Calm,-,N/A,,Overcast,0,2013-12-16 17:15:00
9:35 AM,44.6,41.0,87,30.52,1.0,Calm,Calm,-,N/A,,Overcast,0,2013-12-16 17:35:00
9:55 AM,44.6,41.0,87,30.52,9.0,Calm,Calm,-,N/A,,Overcast,0,2013-12-16 17:55:00
10:15 AM,44.6,41.0,87,30.52,10.0,West,3.5,-,N/A,,Overcast,270,2013-12-16 18:15:00
10:35 AM,44.6,41.0,87,30.51,10.0,SW,3.5,-,N/A,,Overcast,230,2013-12-16 18:35:00
10:55 AM,44.6,39.2,81,30.51,10.0,Calm,Calm,-,N/A,,Mostly Cloudy,0,2013-12-16 18:55:00
11:15 AM,44.6,39.2,81,30.49,10.0,Calm,Calm,-,N/A,,Mostly Cloudy,0,2013-12-16 19:15:00
11:35 AM,44.6,39.2,81,30.48,10.0,Calm,Calm,-,N/A,,Mostly Cloudy,0,2013-12-16 19:35:00
11:55 AM,46.4,41.0,81,30.48,10.0,Calm,Calm,-,N/A,,Overcast,0,2013-12-16 19:55:00
12:15 PM,46.4,41.0,81,30.47,10.0,Calm,Calm,-,N/A,,Overcast,0,2013-12-16 20:15:00
12:35 PM,44.6,39.2,81,30.47,10.0,Calm,Calm,-,N/A,,Overcast,0,2013-12-16 20:35:00
12:55 PM,46.4,42.8,87,30.46,10.0,Calm,Calm,-,N/A,,Mostly Cloudy,0,2013-12-16 20:55:00
1:15 PM,46.4,39.2,76,30.45,10.0,ENE,4.6,-,N/A,,Mostly Cloudy,70,2013-12-16 21:15:00
1:35 PM,46.4,41.0,81,30.45,10.0,Calm,Calm,-,N/A,,Overcast,0,2013-12-16 21:35:00
1:55 PM,46.4,41.0,81,30.44,10.0,NNE,3.5,-,N/A,,Overcast,30,2013-12-16 21:55:00
2:15 PM,46.4,41.0,81,30.44,10.0,Calm,Calm,-,N/A,,Scattered Clouds,0,2013-12-16 22:15:00
2:35 PM,46.4,42.8,87,30.44,10.0,ENE,3.5,-,N/A,,Clear,60,2013-12-16 22:35:00
2:55 PM,46.4,42.8,87,30.43,10.0,NE,3.5,-,N/A,,Clear,40,2013-12-16 22:55:00
3:15 PM,46.4,41.0,81,30.42,10.0,NNE,4.6,-,N/A,,Clear,20,2013-12-16 23:15:00
3:35 PM,46.4,41.0,81,30.43,10.0,ENE,3.5,-,N/A,,Clear,60,2013-12-16 23:35:00
3:55 PM,44.6,39.2,81,30.42,10.0,Calm,Calm,-,N/A,,Clear,0,2013-12-16 23:55:00
4:15 PM,42.8,37.4,81,30.42,10.0,Calm,Calm,-,N/A,,Clear,0,2013-12-17 00:15:00
4:35 PM,39.2,35.6,87,30.42,2.5,Calm,Calm,-,N/A,,Clear,0,2013-12-17 00:35:00
4:55 PM,37.4,33.8,87,30.41,0.2,Calm,Calm,-,N/A,,Unknown,0,2013-12-17 00:55:00
5:15 PM,35.6,33.8,93,30.40,0.5,Calm,Calm,-,N/A,,Mostly Cloudy,0,2013-12-17 01:15:00
5:35 PM,35.6,32.0,87,30.38,0.2,Calm,Calm,-,N/A,,Unknown,0,2013-12-17 01:35:00
5:55 PM,33.8,30.2,87,30.39,0.2,Calm,Calm,-,N/A,,Unknown,0,2013-12-17 01:55:00
6:15 PM,35.6,32.0,87,30.38,-9999.0,Calm,Calm,-,N/A,,Unknown,0,2013-12-17 02:15:00
6:35 PM,33.8,30.2,87,30.38,0.5,Calm,Calm,-,N/A,,Unknown,0,2013-12-17 02:35:00
6:55 PM,33.8,30.2,87,30.37,-9999.0,Calm,Calm,-,N/A,,Unknown,0,2013-12-17 02:55:00
7:15 PM,33.8,30.2,87,30.37,-9999.0,Calm,Calm,-,N/A,,Unknown,0,2013-12-17 03:15:00
7:35 PM,33.8,28.4,81,30.35,-9999.0,East,3.5,-,N/A,,Clear,90,2013-12-17 03:35:00
7:55 PM,32.0,28.4,87,30.35,0.5,Calm,Calm,-,N/A,,Unknown,0,2013-12-17 03:55:00
8:15 PM,32.0,28.4,87,30.35,0.5,Calm,Calm,-,N/A,,Overcast,0,2013-12-17 04:15:00
8:35 PM,33.8,30.2,87,30.33,-9999.0,Calm,Calm,-,N/A,,Overcast,0,2013-12-17 04:35:00
8:55 PM,33.8,30.2,87,30.33,-9999.0,Calm,Calm,-,N/A,,Overcast,0,2013-12-17 04:55:00
9:15 PM,35.6,32.0,87,30.33,0.2,Calm,Calm,-,N/A,,Overcast,0,2013-12-17 05:15:00
9:55 PM,33.8,30.2,87,30.32,0.5,Calm,Calm,-,N/A,,Overcast,0,2013-12-17 05:55:00
10:15 PM,33.8,30.2,87,30.30,0.8,Calm,Calm,-,N/A,,Mostly Cloudy,0,2013-12-17 06:15:00
10:35 PM,32.0,30.2,93,30.30,-9999.0,Calm,Calm,-,N/A,,Unknown,0,2013-12-17 06:35:00
10:55 PM,32.0,28.4,87,30.30,-9999.0,Calm,Calm,-,N/A,,Unknown,0,2013-12-17 06:55:00
11:15 PM,33.8,30.2,87,30.30,8.0,Calm,Calm,-,N/A,,Clear,0,2013-12-17 07:15:00
11:35 PM,33.8,30.2,87,30.30,-9999.0,Calm,Calm,-,N/A,,Mostly Cloudy,0,2013-12-17 07:35:00
11:55 PM,33.8,30.2,87,30.31,-9999.0,Calm,Calm,-,N/A,,Overcast,0,2013-12-17 07:55:00